sensor_id;sensor_type;location;lat;lon;timestamp;pressure;altitude;pressure_sealevel;temperature
74750;BMP280;63269;53.330;-6.288;2023-04-16T00:02:18;101888.59;;;21.73
74750;BMP280;63269;53.330;-6.288;2023-04-16T00:04:43;101894.34;;;21.71
74750;BMP280;63269;53.330;-6.288;2023-04-16T00:07:09;101887.91;;;21.69
74750;BMP280;63269;53.330;-6.288;2023-04-16T00:09:34;101886.38;;;21.68
74750;BMP280;63269;53.330;-6.288;2023-04-16T00:12:00;101897.50;;;21.66
74750;BMP280;63269;53.330;-6.288;2023-04-16T00:14:25;101884.19;;;21.63
74750;BMP280;63269;53.330;-6.288;2023-04-16T00:16:51;101897.19;;;21.60
74750;BMP280;63269;53.330;-6.288;2023-04-16T00:19:16;101893.03;;;21.59
74750;BMP280;63269;53.330;-6.288;2023-04-16T00:21:42;101891.94;;;21.57
74750;BMP280;63269;53.330;-6.288;2023-04-16T00:24:07;101887.75;;;21.56
74750;BMP280;63269;53.330;-6.288;2023-04-16T00:26:33;101892.78;;;21.54
74750;BMP280;63269;53.330;-6.288;2023-04-16T00:28:58;101892.78;;;21.54
74750;BMP280;63269;53.330;-6.288;2023-04-16T00:31:28;101893.91;;;21.53
74750;BMP280;63269;53.330;-6.288;2023-04-16T00:33:54;101896.22;;;21.51
74750;BMP280;63269;53.330;-6.288;2023-04-16T00:36:20;101897.81;;;21.48
74750;BMP280;63269;53.330;-6.288;2023-04-16T00:38:45;101892.88;;;21.47
74750;BMP280;63269;53.330;-6.288;2023-04-16T00:41:10;101893.69;;;21.44
74750;BMP280;63269;53.330;-6.288;2023-04-16T00:43:36;101897.53;;;21.43
74750;BMP280;63269;53.330;-6.288;2023-04-16T00:46:04;101895.28;;;21.41
74750;BMP280;63269;53.330;-6.288;2023-04-16T00:48:31;101876.66;;;21.37
74750;BMP280;63269;53.330;-6.288;2023-04-16T00:50:57;101890.00;;;21.37
74750;BMP280;63269;53.330;-6.288;2023-04-16T00:53:24;101890.00;;;21.37
74750;BMP280;63269;53.330;-6.288;2023-04-16T00:55:50;101885.47;;;21.34
74750;BMP280;63269;53.330;-6.288;2023-04-16T00:58:16;101881.69;;;21.32
74750;BMP280;63269;53.330;-6.288;2023-04-16T01:00:41;101881.69;;;21.32
74750;BMP280;63269;53.330;-6.288;2023-04-16T01:03:07;101879.88;;;21.29
74750;BMP280;63269;53.330;-6.288;2023-04-16T01:05:34;101876.06;;;21.26
74750;BMP280;63269;53.330;-6.288;2023-04-16T01:08:00;101866.97;;;21.24
74750;BMP280;63269;53.330;-6.288;2023-04-16T01:10:25;101866.97;;;21.24
74750;BMP280;63269;53.330;-6.288;2023-04-16T01:12:51;101871.19;;;21.21
74750;BMP280;63269;53.330;-6.288;2023-04-16T01:15:16;101880.78;;;21.18
74750;BMP280;63269;53.330;-6.288;2023-04-16T01:17:44;101872.78;;;21.18
74750;BMP280;63269;53.330;-6.288;2023-04-16T01:20:10;101872.78;;;21.18
74750;BMP280;63269;53.330;-6.288;2023-04-16T01:22:35;101866.75;;;21.14
74750;BMP280;63269;53.330;-6.288;2023-04-16T01:25:01;101859.91;;;21.13
74750;BMP280;63269;53.330;-6.288;2023-04-16T01:27:26;101867.56;;;21.11
74750;BMP280;63269;53.330;-6.288;2023-04-16T01:29:52;101866.06;;;21.10
74750;BMP280;63269;53.330;-6.288;2023-04-16T01:32:17;101861.53;;;21.07
74750;BMP280;63269;53.330;-6.288;2023-04-16T01:34:42;101873.38;;;21.06
74750;BMP280;63269;53.330;-6.288;2023-04-16T01:37:08;101863.09;;;21.05
74750;BMP280;63269;53.330;-6.288;2023-04-16T01:39:33;101871.09;;;21.05
74750;BMP280;63269;53.330;-6.288;2023-04-16T01:41:59;101871.53;;;21.03
74750;BMP280;63269;53.330;-6.288;2023-04-16T01:44:24;101863.91;;;21.02
74750;BMP280;63269;53.330;-6.288;2023-04-16T01:46:50;101863.13;;;21.01
74750;BMP280;63269;53.330;-6.288;2023-04-16T01:49:15;101863.13;;;21.01
74750;BMP280;63269;53.330;-6.288;2023-04-16T01:51:41;101868.16;;;20.99
74750;BMP280;63269;53.330;-6.288;2023-04-16T01:54:06;101872.75;;;20.98
74750;BMP280;63269;53.330;-6.288;2023-04-16T01:56:32;101868.56;;;20.97
74750;BMP280;63269;53.330;-6.288;2023-04-16T01:58:57;101868.56;;;20.97
74750;BMP280;63269;53.330;-6.288;2023-04-16T02:01:23;101859.44;;;20.95
74750;BMP280;63269;53.330;-6.288;2023-04-16T02:03:48;101863.25;;;20.94
74750;BMP280;63269;53.330;-6.288;2023-04-16T02:06:15;101874.34;;;20.92
74750;BMP280;63269;53.330;-6.288;2023-04-16T02:08:40;101874.34;;;20.92
74750;BMP280;63269;53.330;-6.288;2023-04-16T02:11:06;101874.75;;;20.91
74750;BMP280;63269;53.330;-6.288;2023-04-16T02:13:31;101863.75;;;20.89
74750;BMP280;63269;53.330;-6.288;2023-04-16T02:15:57;101863.75;;;20.89
74750;BMP280;63269;53.330;-6.288;2023-04-16T02:18:22;101870.97;;;20.88
74750;BMP280;63269;53.330;-6.288;2023-04-16T02:20:48;101870.22;;;20.88
74750;BMP280;63269;53.330;-6.288;2023-04-16T02:23:16;101870.22;;;20.88
74750;BMP280;63269;53.330;-6.288;2023-04-16T02:25:43;101874.44;;;20.85
74750;BMP280;63269;53.330;-6.288;2023-04-16T02:28:10;101872.53;;;20.86
74750;BMP280;63269;53.330;-6.288;2023-04-16T02:30:36;101862.25;;;20.84
74750;BMP280;63269;53.330;-6.288;2023-04-16T02:33:03;101875.59;;;20.84
74750;BMP280;63269;53.330;-6.288;2023-04-16T02:35:30;101879.47;;;20.83
74750;BMP280;63269;53.330;-6.288;2023-04-16T02:37:59;101875.28;;;20.82
74750;BMP280;63269;53.330;-6.288;2023-04-16T02:40:25;101875.28;;;20.82
74750;BMP280;63269;53.330;-6.288;2023-04-16T02:42:51;101862.69;;;20.83
74750;BMP280;63269;53.330;-6.288;2023-04-16T02:45:17;101865.75;;;20.81
74750;BMP280;63269;53.330;-6.288;2023-04-16T02:47:42;101865.75;;;20.81
74750;BMP280;63269;53.330;-6.288;2023-04-16T02:50:08;101879.47;;;20.79
74750;BMP280;63269;53.330;-6.288;2023-04-16T02:52:33;101869.97;;;20.78
74750;BMP280;63269;53.330;-6.288;2023-04-16T02:54:59;101869.97;;;20.78
74750;BMP280;63269;53.330;-6.288;2023-04-16T02:57:24;101868.50;;;20.77
74750;BMP280;63269;53.330;-6.288;2023-04-16T02:59:50;101868.50;;;20.77
74750;BMP280;63269;53.330;-6.288;2023-04-16T03:02:16;101868.50;;;20.77
74750;BMP280;63269;53.330;-6.288;2023-04-16T03:04:41;101870.78;;;20.75
74750;BMP280;63269;53.330;-6.288;2023-04-16T03:07:07;101870.78;;;20.75
74750;BMP280;63269;53.330;-6.288;2023-04-16T03:09:34;101870.78;;;20.75
74750;BMP280;63269;53.330;-6.288;2023-04-16T03:11:59;101861.28;;;20.74
74750;BMP280;63269;53.330;-6.288;2023-04-16T03:14:26;101860.94;;;20.72
74750;BMP280;63269;53.330;-6.288;2023-04-16T03:16:51;101860.53;;;20.74
74750;BMP280;63269;53.330;-6.288;2023-04-16T03:19:17;101860.53;;;20.74
74750;BMP280;63269;53.330;-6.288;2023-04-16T03:21:42;101864.34;;;20.73
74750;BMP280;63269;53.330;-6.288;2023-04-16T03:24:08;101865.53;;;20.72
74750;BMP280;63269;53.330;-6.288;2023-04-16T03:26:33;101863.25;;;20.70
74750;BMP280;63269;53.330;-6.288;2023-04-16T03:28:58;101866.66;;;20.71
74750;BMP280;63269;53.330;-6.288;2023-04-16T03:31:26;101866.66;;;20.71
74750;BMP280;63269;53.330;-6.288;2023-04-16T03:33:51;101872.41;;;20.69
74750;BMP280;63269;53.330;-6.288;2023-04-16T03:36:17;101875.09;;;20.69
74750;BMP280;63269;53.330;-6.288;2023-04-16T03:38:42;101875.88;;;20.66
74750;BMP280;63269;53.330;-6.288;2023-04-16T03:41:07;101878.16;;;20.68
74750;BMP280;63269;53.330;-6.288;2023-04-16T03:43:33;101875.88;;;20.66
74750;BMP280;63269;53.330;-6.288;2023-04-16T03:45:58;101875.88;;;20.66
74750;BMP280;63269;53.330;-6.288;2023-04-16T03:48:24;101875.88;;;20.66
74750;BMP280;63269;53.330;-6.288;2023-04-16T03:50:49;101877.03;;;20.65
74750;BMP280;63269;53.330;-6.288;2023-04-16T03:53:15;101866.03;;;20.63
74750;BMP280;63269;53.330;-6.288;2023-04-16T03:55:41;101868.69;;;20.63
74750;BMP280;63269;53.330;-6.288;2023-04-16T03:58:06;101866.44;;;20.62
74750;BMP280;63269;53.330;-6.288;2023-04-16T04:00:32;101865.25;;;20.63
74750;BMP280;63269;53.330;-6.288;2023-04-16T04:02:57;101865.25;;;20.63
74750;BMP280;63269;53.330;-6.288;2023-04-16T04:05:22;101860.34;;;20.61
74750;BMP280;63269;53.330;-6.288;2023-04-16T04:07:48;101857.31;;;20.59
74750;BMP280;63269;53.330;-6.288;2023-04-16T04:10:13;101855.81;;;20.58
74750;BMP280;63269;53.330;-6.288;2023-04-16T04:12:39;101855.81;;;20.58
74750;BMP280;63269;53.330;-6.288;2023-04-16T04:15:05;101853.13;;;20.58
74750;BMP280;63269;53.330;-6.288;2023-04-16T04:17:30;101853.13;;;20.58
74750;BMP280;63269;53.330;-6.288;2023-04-16T04:19:55;101842.91;;;20.56
74750;BMP280;63269;53.330;-6.288;2023-04-16T04:22:21;101837.56;;;20.56
74750;BMP280;63269;53.330;-6.288;2023-04-16T04:24:46;101837.56;;;20.56
74750;BMP280;63269;53.330;-6.288;2023-04-16T04:27:12;101848.63;;;20.55
74750;BMP280;63269;53.330;-6.288;2023-04-16T04:29:37;101852.03;;;20.55
74750;BMP280;63269;53.330;-6.288;2023-04-16T04:32:02;101852.03;;;20.55
74750;BMP280;63269;53.330;-6.288;2023-04-16T04:34:28;101851.69;;;20.53
74750;BMP280;63269;53.330;-6.288;2023-04-16T04:36:53;101852.09;;;20.52
74750;BMP280;63269;53.330;-6.288;2023-04-16T04:39:19;101854.78;;;20.52
74750;BMP280;63269;53.330;-6.288;2023-04-16T04:41:46;101846.41;;;20.50
74750;BMP280;63269;53.330;-6.288;2023-04-16T04:44:11;101846.41;;;20.50
74750;BMP280;63269;53.330;-6.288;2023-04-16T04:46:38;101846.41;;;20.50
74750;BMP280;63269;53.330;-6.288;2023-04-16T04:49:04;101844.47;;;20.50
74750;BMP280;63269;53.330;-6.288;2023-04-16T04:51:29;101844.47;;;20.50
74750;BMP280;63269;53.330;-6.288;2023-04-16T04:53:55;101858.22;;;20.49
74750;BMP280;63269;53.330;-6.288;2023-04-16T04:56:20;101849.88;;;20.47
74750;BMP280;63269;53.330;-6.288;2023-04-16T04:58:46;101863.19;;;20.47
74750;BMP280;63269;53.330;-6.288;2023-04-16T05:01:11;101863.19;;;20.47
74750;BMP280;63269;53.330;-6.288;2023-04-16T05:03:37;101858.28;;;20.45
74750;BMP280;63269;53.330;-6.288;2023-04-16T05:06:02;101862.81;;;20.45
74750;BMP280;63269;53.330;-6.288;2023-04-16T05:08:28;101862.81;;;20.45
74750;BMP280;63269;53.330;-6.288;2023-04-16T05:10:53;101862.81;;;20.45
74750;BMP280;63269;53.330;-6.288;2023-04-16T05:13:18;101868.56;;;20.43
74750;BMP280;63269;53.330;-6.288;2023-04-16T05:15:44;101873.16;;;20.43
74750;BMP280;63269;53.330;-6.288;2023-04-16T05:18:10;101876.97;;;20.42
74750;BMP280;63269;53.330;-6.288;2023-04-16T05:20:35;101874.31;;;20.42
74750;BMP280;63269;53.330;-6.288;2023-04-16T05:23:02;101878.53;;;20.39
74750;BMP280;63269;53.330;-6.288;2023-04-16T05:25:27;101883.84;;;20.39
74750;BMP280;63269;53.330;-6.288;2023-04-16T05:27:53;101887.69;;;20.38
74750;BMP280;63269;53.330;-6.288;2023-04-16T05:30:18;101888.44;;;20.38
74750;BMP280;63269;53.330;-6.288;2023-04-16T05:32:44;101882.38;;;20.38
74750;BMP280;63269;53.330;-6.288;2023-04-16T05:35:10;101885.41;;;20.36
74750;BMP280;63269;53.330;-6.288;2023-04-16T05:37:35;101886.59;;;20.35
74750;BMP280;63269;53.330;-6.288;2023-04-16T05:40:01;101886.59;;;20.35
74750;BMP280;63269;53.330;-6.288;2023-04-16T05:42:26;101895.31;;;20.36
74750;BMP280;63269;53.330;-6.288;2023-04-16T05:44:52;101891.91;;;20.35
74750;BMP280;63269;53.330;-6.288;2023-04-16T05:47:17;101891.91;;;20.35
74750;BMP280;63269;53.330;-6.288;2023-04-16T05:49:42;101892.31;;;20.34
74750;BMP280;63269;53.330;-6.288;2023-04-16T05:52:08;101891.56;;;20.33
74750;BMP280;63269;53.330;-6.288;2023-04-16T05:54:34;101891.56;;;20.33
74750;BMP280;63269;53.330;-6.288;2023-04-16T05:56:59;101892.72;;;20.32
74750;BMP280;63269;53.330;-6.288;2023-04-16T05:59:26;101892.72;;;20.32
74750;BMP280;63269;53.330;-6.288;2023-04-16T06:01:51;101894.59;;;20.32
74750;BMP280;63269;53.330;-6.288;2023-04-16T06:04:17;101897.69;;;20.30
74750;BMP280;63269;53.330;-6.288;2023-04-16T06:06:42;101902.25;;;20.30
74750;BMP280;63269;53.330;-6.288;2023-04-16T06:09:08;101907.59;;;20.30
74750;BMP280;63269;53.330;-6.288;2023-04-16T06:11:33;101907.59;;;20.30
74750;BMP280;63269;53.330;-6.288;2023-04-16T06:13:59;101902.66;;;20.28
74750;BMP280;63269;53.330;-6.288;2023-04-16T06:16:24;101914.06;;;20.29
74750;BMP280;63269;53.330;-6.288;2023-04-16T06:18:50;101918.66;;;20.28
74750;BMP280;63269;53.330;-6.288;2023-04-16T06:21:15;101914.47;;;20.27
74750;BMP280;63269;53.330;-6.288;2023-04-16T06:23:40;101914.47;;;20.27
74750;BMP280;63269;53.330;-6.288;2023-04-16T06:26:06;101919.81;;;20.27
74750;BMP280;63269;53.330;-6.288;2023-04-16T06:28:31;101927.06;;;20.27
74750;BMP280;63269;53.330;-6.288;2023-04-16T06:30:57;101921.72;;;20.27
74750;BMP280;63269;53.330;-6.288;2023-04-16T06:33:22;101924.38;;;20.27
74750;BMP280;63269;53.330;-6.288;2023-04-16T06:35:48;101928.19;;;20.26
74750;BMP280;63269;53.330;-6.288;2023-04-16T06:38:13;101932.78;;;20.25
74750;BMP280;63269;53.330;-6.288;2023-04-16T06:40:39;101934.66;;;20.25
74750;BMP280;63269;53.330;-6.288;2023-04-16T06:43:05;101932.00;;;20.25
74750;BMP280;63269;53.330;-6.288;2023-04-16T06:45:30;101930.50;;;20.24
74750;BMP280;63269;53.330;-6.288;2023-04-16T06:47:56;101930.50;;;20.24
74750;BMP280;63269;53.330;-6.288;2023-04-16T06:50:23;101932.38;;;20.23
74750;BMP280;63269;53.330;-6.288;2023-04-16T06:52:51;101937.00;;;20.23
74750;BMP280;63269;53.330;-6.288;2023-04-16T06:55:16;101943.81;;;20.24
74750;BMP280;63269;53.330;-6.288;2023-04-16T06:57:41;101937.00;;;20.23
74750;BMP280;63269;53.330;-6.288;2023-04-16T07:00:07;101933.59;;;20.22
74750;BMP280;63269;53.330;-6.288;2023-04-16T07:02:33;101943.03;;;20.23
74750;BMP280;63269;53.330;-6.288;2023-04-16T07:04:59;101936.25;;;20.22
74750;BMP280;63269;53.330;-6.288;2023-04-16T07:07:24;101940.81;;;20.22
74750;BMP280;63269;53.330;-6.288;2023-04-16T07:09:50;101938.91;;;20.22
74750;BMP280;63269;53.330;-6.288;2023-04-16T07:12:16;101945.72;;;20.23
74750;BMP280;63269;53.330;-6.288;2023-04-16T07:14:41;101936.94;;;20.26
74750;BMP280;63269;53.330;-6.288;2023-04-16T07:17:07;101945.28;;;20.28
74750;BMP280;63269;53.330;-6.288;2023-04-16T07:19:32;101954.00;;;20.32
74750;BMP280;63269;53.330;-6.288;2023-04-16T07:22:01;101955.47;;;20.37
74750;BMP280;63269;53.330;-6.288;2023-04-16T07:24:26;101962.25;;;20.42
74750;BMP280;63269;53.330;-6.288;2023-04-16T07:26:51;101965.63;;;20.46
74750;BMP280;63269;53.330;-6.288;2023-04-16T07:29:17;101965.63;;;20.46
74750;BMP280;63269;53.330;-6.288;2023-04-16T07:31:42;101964.41;;;20.54
74750;BMP280;63269;53.330;-6.288;2023-04-16T07:34:08;101964.41;;;20.54
74750;BMP280;63269;53.330;-6.288;2023-04-16T07:36:34;101970.09;;;20.56
74750;BMP280;63269;53.330;-6.288;2023-04-16T07:39:00;101963.97;;;20.59
74750;BMP280;63269;53.330;-6.288;2023-04-16T07:41:25;101973.81;;;20.62
74750;BMP280;63269;53.330;-6.288;2023-04-16T07:43:51;101977.56;;;20.68
74750;BMP280;63269;53.330;-6.288;2023-04-16T07:46:16;101974.50;;;20.70
74750;BMP280;63269;53.330;-6.288;2023-04-16T07:48:42;101974.50;;;20.70
74750;BMP280;63269;53.330;-6.288;2023-04-16T07:51:07;101986.56;;;20.78
74750;BMP280;63269;53.330;-6.288;2023-04-16T07:53:33;101986.56;;;20.78
74750;BMP280;63269;53.330;-6.288;2023-04-16T07:55:58;101975.50;;;20.79
74750;BMP280;63269;53.330;-6.288;2023-04-16T07:58:23;101975.06;;;20.85
74750;BMP280;63269;53.330;-6.288;2023-04-16T08:00:50;101975.06;;;20.85
74750;BMP280;63269;53.330;-6.288;2023-04-16T08:03:15;101979.56;;;20.88
74750;BMP280;63269;53.330;-6.288;2023-04-16T08:05:42;101981.81;;;20.93
74750;BMP280;63269;53.330;-6.288;2023-04-16T08:08:07;101985.22;;;20.93
74750;BMP280;63269;53.330;-6.288;2023-04-16T08:10:32;101992.41;;;20.96
74750;BMP280;63269;53.330;-6.288;2023-04-16T08:12:59;101988.19;;;20.99
74750;BMP280;63269;53.330;-6.288;2023-04-16T08:15:25;101987.78;;;21.00
74750;BMP280;63269;53.330;-6.288;2023-04-16T08:17:51;101991.97;;;21.02
74750;BMP280;63269;53.330;-6.288;2023-04-16T08:20:17;101990.44;;;21.04
74750;BMP280;63269;53.330;-6.288;2023-04-16T08:22:44;101997.63;;;21.07
74750;BMP280;63269;53.330;-6.288;2023-04-16T08:25:09;101997.63;;;21.07
74750;BMP280;63269;53.330;-6.288;2023-04-16T08:27:35;101997.94;;;21.09
74750;BMP280;63269;53.330;-6.288;2023-04-16T08:30:00;101997.19;;;21.09
74750;BMP280;63269;53.330;-6.288;2023-04-16T08:32:26;101994.47;;;21.12
74750;BMP280;63269;53.330;-6.288;2023-04-16T08:34:51;101996.69;;;21.17
74750;BMP280;63269;53.330;-6.288;2023-04-16T08:37:16;101996.69;;;21.17
74750;BMP280;63269;53.330;-6.288;2023-04-16T08:39:42;102002.72;;;21.22
74750;BMP280;63269;53.330;-6.288;2023-04-16T08:42:39;102004.25;;;21.23
74750;BMP280;63269;53.330;-6.288;2023-04-16T08:47:34;102003.78;;;21.28
74750;BMP280;63269;53.330;-6.288;2023-04-16T08:50:03;102006.78;;;21.30
74750;BMP280;63269;53.330;-6.288;2023-04-16T08:52:29;102004.47;;;21.32
74750;BMP280;63269;53.330;-6.288;2023-04-16T08:57:29;102017.78;;;21.35
74750;BMP280;63269;53.330;-6.288;2023-04-16T08:59:58;102016.59;;;21.36
74750;BMP280;63269;53.330;-6.288;2023-04-16T09:02:25;102022.72;;;21.37
74750;BMP280;63269;53.330;-6.288;2023-04-16T09:04:51;102015.78;;;21.39
74750;BMP280;63269;53.330;-6.288;2023-04-16T09:07:18;102021.50;;;21.42
74750;BMP280;63269;53.330;-6.288;2023-04-16T09:09:47;102015.00;;;21.43
74750;BMP280;63269;53.330;-6.288;2023-04-16T09:12:13;102027.53;;;21.46
74750;BMP280;63269;53.330;-6.288;2023-04-16T09:14:38;102022.94;;;21.46
74750;BMP280;63269;53.330;-6.288;2023-04-16T09:17:06;102029.41;;;21.49
74750;BMP280;63269;53.330;-6.288;2023-04-16T09:19:31;102031.63;;;21.50
74750;BMP280;63269;53.330;-6.288;2023-04-16T09:21:56;102022.47;;;21.51
74750;BMP280;63269;53.330;-6.288;2023-04-16T09:24:22;102026.69;;;21.52
74750;BMP280;63269;53.330;-6.288;2023-04-16T09:26:49;102034.28;;;21.54
74750;BMP280;63269;53.330;-6.288;2023-04-16T09:29:40;102038.03;;;21.56
74750;BMP280;63269;53.330;-6.288;2023-04-16T09:32:07;102030.03;;;21.56
74750;BMP280;63269;53.330;-6.288;2023-04-16T09:34:34;102043.00;;;21.58
74750;BMP280;63269;53.330;-6.288;2023-04-16T09:37:18;102042.56;;;21.59
74750;BMP280;63269;53.330;-6.288;2023-04-16T09:39:44;102048.28;;;21.61
74750;BMP280;63269;53.330;-6.288;2023-04-16T09:42:21;102049.38;;;21.64
74750;BMP280;63269;53.330;-6.288;2023-04-16T09:44:48;102052.78;;;21.65
74750;BMP280;63269;53.330;-6.288;2023-04-16T09:47:14;102053.13;;;21.67
74750;BMP280;63269;53.330;-6.288;2023-04-16T09:49:43;102059.22;;;21.67
74750;BMP280;63269;53.330;-6.288;2023-04-16T09:52:16;102050.06;;;21.68
74750;BMP280;63269;53.330;-6.288;2023-04-16T09:54:49;102064.53;;;21.71
74750;BMP280;63269;53.330;-6.288;2023-04-16T09:57:22;102067.94;;;21.71
74750;BMP280;63269;53.330;-6.288;2023-04-16T10:00:08;102062.19;;;21.73
74750;BMP280;63269;53.330;-6.288;2023-04-16T10:02:35;102067.53;;;21.73
74750;BMP280;63269;53.330;-6.288;2023-04-16T10:05:03;102065.63;;;21.73
74750;BMP280;63269;53.330;-6.288;2023-04-16T10:07:32;102075.50;;;21.76
74750;BMP280;63269;53.330;-6.288;2023-04-16T10:09:58;102076.66;;;21.75
74750;BMP280;63269;53.330;-6.288;2023-04-16T10:12:23;102072.84;;;21.76
74750;BMP280;63269;53.330;-6.288;2023-04-16T10:14:48;102081.16;;;21.78
74750;BMP280;63269;53.330;-6.288;2023-04-16T10:17:15;102084.59;;;21.79
74750;BMP280;63269;53.330;-6.288;2023-04-16T10:19:41;102082.69;;;21.79
74750;BMP280;63269;53.330;-6.288;2023-04-16T10:22:06;102089.53;;;21.80
74750;BMP280;63269;53.330;-6.288;2023-04-16T10:24:33;102082.28;;;21.81
74750;BMP280;63269;53.330;-6.288;2023-04-16T10:26:59;102086.50;;;21.82
74750;BMP280;63269;53.330;-6.288;2023-04-16T10:29:27;102094.06;;;21.84
74750;BMP280;63269;53.330;-6.288;2023-04-16T10:31:53;102089.47;;;21.84
74750;BMP280;63269;53.330;-6.288;2023-04-16T10:34:20;102095.56;;;21.85
74750;BMP280;63269;53.330;-6.288;2023-04-16T10:36:50;102086.41;;;21.86
74750;BMP280;63269;53.330;-6.288;2023-04-16T10:39:24;102086.75;;;21.88
74750;BMP280;63269;53.330;-6.288;2023-04-16T10:42:05;102088.25;;;21.89
74750;BMP280;63269;53.330;-6.288;2023-04-16T10:44:31;102091.69;;;21.89
74750;BMP280;63269;53.330;-6.288;2023-04-16T10:46:58;102090.53;;;21.90
74750;BMP280;63269;53.330;-6.288;2023-04-16T10:49:24;102083.28;;;21.91
74750;BMP280;63269;53.330;-6.288;2023-04-16T10:52:06;102084.38;;;21.93
74750;BMP280;63269;53.330;-6.288;2023-04-16T10:54:34;102095.06;;;21.93
74750;BMP280;63269;53.330;-6.288;2023-04-16T10:57:05;102096.56;;;21.94
74750;BMP280;63269;53.330;-6.288;2023-04-16T10:59:32;102093.47;;;21.96
74750;BMP280;63269;53.330;-6.288;2023-04-16T11:02:00;102098.81;;;21.96
74750;BMP280;63269;53.330;-6.288;2023-04-16T11:04:33;102101.44;;;21.99
74750;BMP280;63269;53.330;-6.288;2023-04-16T11:12:13;102089.59;;;22.00
74750;BMP280;63269;53.330;-6.288;2023-04-16T11:14:39;102098.75;;;21.99
74750;BMP280;63269;53.330;-6.288;2023-04-16T11:17:06;102091.94;;;21.98
74750;BMP280;63269;53.330;-6.288;2023-04-16T11:19:31;102085.41;;;21.99
74750;BMP280;63269;53.330;-6.288;2023-04-16T11:21:57;102081.22;;;21.98
74750;BMP280;63269;53.330;-6.288;2023-04-16T11:24:23;102078.56;;;21.98
74750;BMP280;63269;53.330;-6.288;2023-04-16T11:26:51;102083.91;;;21.98
74750;BMP280;63269;53.330;-6.288;2023-04-16T11:29:17;102087.72;;;21.97
74750;BMP280;63269;53.330;-6.288;2023-04-16T11:31:49;102089.25;;;21.98
74750;BMP280;63269;53.330;-6.288;2023-04-16T11:34:16;102094.25;;;21.96
74750;BMP280;63269;53.330;-6.288;2023-04-16T11:36:43;102093.84;;;21.98
74750;BMP280;63269;53.330;-6.288;2023-04-16T11:39:08;102097.31;;;21.95
74750;BMP280;63269;53.330;-6.288;2023-04-16T11:41:34;102080.94;;;21.93
74750;BMP280;63269;53.330;-6.288;2023-04-16T11:44:25;102095.44;;;21.92
74750;BMP280;63269;53.330;-6.288;2023-04-16T11:46:52;102094.38;;;21.89
74750;BMP280;63269;53.330;-6.288;2023-04-16T11:49:28;102089.03;;;21.89
74750;BMP280;63269;53.330;-6.288;2023-04-16T11:51:54;102088.66;;;21.87
74750;BMP280;63269;53.330;-6.288;2023-04-16T11:54:21;102089.09;;;21.86
74750;BMP280;63269;53.330;-6.288;2023-04-16T11:56:48;102084.13;;;21.84
74750;BMP280;63269;53.330;-6.288;2023-04-16T11:59:20;102080.72;;;21.84
74750;BMP280;63269;53.330;-6.288;2023-04-16T12:01:55;102078.47;;;21.82
74750;BMP280;63269;53.330;-6.288;2023-04-16T12:04:22;102080.78;;;21.80
74750;BMP280;63269;53.330;-6.288;2023-04-16T12:07:13;102081.91;;;21.79
74750;BMP280;63269;53.330;-6.288;2023-04-16T12:09:40;102078.91;;;21.77
74750;BMP280;63269;53.330;-6.288;2023-04-16T12:12:26;102078.53;;;21.75
74750;BMP280;63269;53.330;-6.288;2023-04-16T12:14:54;102078.63;;;21.71
74750;BMP280;63269;53.330;-6.288;2023-04-16T12:17:22;102079.78;;;21.70
74750;BMP280;63269;53.330;-6.288;2023-04-16T12:19:51;102077.13;;;21.70
74750;BMP280;63269;53.330;-6.288;2023-04-16T12:22:33;102079.44;;;21.68
74750;BMP280;63269;53.330;-6.288;2023-04-16T12:25:17;102078.34;;;21.66
74750;BMP280;63269;53.330;-6.288;2023-04-16T12:27:50;102078.34;;;21.66
74750;BMP280;63269;53.330;-6.288;2023-04-16T12:30:18;102079.88;;;21.63
74750;BMP280;63269;53.330;-6.288;2023-04-16T12:32:46;102080.31;;;21.61
74750;BMP280;63269;53.330;-6.288;2023-04-16T12:35:12;102078.03;;;21.60
74750;BMP280;63269;53.330;-6.288;2023-04-16T12:37:38;102079.97;;;21.59
74750;BMP280;63269;53.330;-6.288;2023-04-16T12:40:04;102083.06;;;21.58
74750;BMP280;63269;53.330;-6.288;2023-04-16T12:42:31;102084.19;;;21.57
74750;BMP280;63269;53.330;-6.288;2023-04-16T12:45:03;102083.44;;;21.56
74750;BMP280;63269;53.330;-6.288;2023-04-16T12:47:33;102080.41;;;21.54
74750;BMP280;63269;53.330;-6.288;2023-04-16T12:49:58;102076.25;;;21.53
74750;BMP280;63269;53.330;-6.288;2023-04-16T12:52:24;102072.38;;;21.54
74750;BMP280;63269;53.330;-6.288;2023-04-16T12:54:50;102072.38;;;21.54
74750;BMP280;63269;53.330;-6.288;2023-04-16T12:57:15;102071.66;;;21.54
74750;BMP280;63269;53.330;-6.288;2023-04-16T12:59:41;102073.56;;;21.53
74750;BMP280;63269;53.330;-6.288;2023-04-16T13:02:06;102075.81;;;21.55
74750;BMP280;63269;53.330;-6.288;2023-04-16T13:04:32;102072.38;;;21.54
74750;BMP280;63269;53.330;-6.288;2023-04-16T13:06:58;102073.56;;;21.53
74750;BMP280;63269;53.330;-6.288;2023-04-16T13:09:24;102077.00;;;21.54
74750;BMP280;63269;53.330;-6.288;2023-04-16T13:11:50;102078.91;;;21.53
74750;BMP280;63269;53.330;-6.288;2023-04-16T13:14:15;102083.50;;;21.53
74750;BMP280;63269;53.330;-6.288;2023-04-16T13:16:41;102076.63;;;21.52
74750;BMP280;63269;53.330;-6.288;2023-04-16T13:19:06;102083.13;;;21.51
74750;BMP280;63269;53.330;-6.288;2023-04-16T13:21:32;102089.66;;;21.50
74750;BMP280;63269;53.330;-6.288;2023-04-16T13:23:58;102088.88;;;21.49
74750;BMP280;63269;53.330;-6.288;2023-04-16T13:26:24;102082.03;;;21.48
74750;BMP280;63269;53.330;-6.288;2023-04-16T13:28:49;102091.19;;;21.47
74750;BMP280;63269;53.330;-6.288;2023-04-16T13:31:14;102083.19;;;21.47
74750;BMP280;63269;53.330;-6.288;2023-04-16T13:33:44;102081.66;;;21.46
74750;BMP280;63269;53.330;-6.288;2023-04-16T13:36:09;102087.38;;;21.48
74750;BMP280;63269;53.330;-6.288;2023-04-16T13:38:35;102085.78;;;21.51
74750;BMP280;63269;53.330;-6.288;2023-04-16T13:41:00;102086.50;;;21.55
74750;BMP280;63269;53.330;-6.288;2023-04-16T13:43:25;102087.19;;;21.59
74750;BMP280;63269;53.330;-6.288;2023-04-16T13:45:51;102083.72;;;21.62
74750;BMP280;63269;53.330;-6.288;2023-04-16T13:48:16;102082.94;;;21.65
74750;BMP280;63269;53.330;-6.288;2023-04-16T13:50:42;102086.31;;;21.69
74750;BMP280;63269;53.330;-6.288;2023-04-16T13:53:08;102080.91;;;21.73